sensor_id;sensor_type;location;lat;lon;timestamp;P1;durP1;ratioP1;P2;durP2;ratioP2
12623;SDS011;6377;42.836;23.998;2023-05-07T00:02:26;16.27;;;9.60;;
12623;SDS011;6377;42.836;23.998;2023-05-07T00:04:53;12.70;;;9.00;;
12623;SDS011;6377;42.836;23.998;2023-05-07T00:07:20;12.53;;;9.10;;
12623;SDS011;6377;42.836;23.998;2023-05-07T00:09:48;11.10;;;8.07;;
12623;SDS011;6377;42.836;23.998;2023-05-07T00:12:15;11.77;;;8.47;;
12623;SDS011;6377;42.836;23.998;2023-05-07T00:14:42;13.30;;;9.00;;
12623;SDS011;6377;42.836;23.998;2023-05-07T00:17:09;11.23;;;8.80;;
12623;SDS011;6377;42.836;23.998;2023-05-07T00:19:38;11.33;;;8.63;;
12623;SDS011;6377;42.836;23.998;2023-05-07T00:22:05;10.50;;;8.20;;
12623;SDS011;6377;42.836;23.998;2023-05-07T00:24:33;12.37;;;7.70;;
12623;SDS011;6377;42.836;23.998;2023-05-07T00:27:01;9.97;;;7.20;;
12623;SDS011;6377;42.836;23.998;2023-05-07T00:29:28;9.77;;;6.77;;
12623;SDS011;6377;42.836;23.998;2023-05-07T00:31:55;8.90;;;7.37;;
12623;SDS011;6377;42.836;23.998;2023-05-07T00:34:22;9.63;;;7.17;;
12623;SDS011;6377;42.836;23.998;2023-05-07T00:36:51;13.70;;;7.83;;
12623;SDS011;6377;42.836;23.998;2023-05-07T00:39:18;11.83;;;8.60;;
12623;SDS011;6377;42.836;23.998;2023-05-07T00:41:45;11.37;;;7.73;;
12623;SDS011;6377;42.836;23.998;2023-05-07T00:44:12;7.03;;;6.20;;
12623;SDS011;6377;42.836;23.998;2023-05-07T00:46:40;10.00;;;6.50;;
12623;SDS011;6377;42.836;23.998;2023-05-07T00:49:07;7.60;;;6.20;;
12623;SDS011;6377;42.836;23.998;2023-05-07T00:51:34;8.87;;;6.60;;
12623;SDS011;6377;42.836;23.998;2023-05-07T00:54:03;9.47;;;6.07;;
12623;SDS011;6377;42.836;23.998;2023-05-07T00:56:31;7.70;;;5.97;;
12623;SDS011;6377;42.836;23.998;2023-05-07T00:58:58;7.53;;;5.90;;
12623;SDS011;6377;42.836;23.998;2023-05-07T01:01:27;7.60;;;6.37;;
12623;SDS011;6377;42.836;23.998;2023-05-07T01:03:54;7.57;;;5.73;;
12623;SDS011;6377;42.836;23.998;2023-05-07T01:06:21;9.17;;;5.77;;
12623;SDS011;6377;42.836;23.998;2023-05-07T01:08:53;9.93;;;6.17;;
12623;SDS011;6377;42.836;23.998;2023-05-07T01:11:23;8.43;;;6.30;;
12623;SDS011;6377;42.836;23.998;2023-05-07T01:13:50;9.17;;;6.73;;
12623;SDS011;6377;42.836;23.998;2023-05-07T01:16:19;10.93;;;7.43;;
12623;SDS011;6377;42.836;23.998;2023-05-07T01:18:46;12.87;;;8.67;;
12623;SDS011;6377;42.836;23.998;2023-05-07T01:21:14;16.63;;;9.07;;
12623;SDS011;6377;42.836;23.998;2023-05-07T01:23:44;14.40;;;8.53;;
12623;SDS011;6377;42.836;23.998;2023-05-07T01:26:13;9.93;;;7.43;;
12623;SDS011;6377;42.836;23.998;2023-05-07T01:28:41;12.37;;;7.57;;
12623;SDS011;6377;42.836;23.998;2023-05-07T01:31:08;12.90;;;8.57;;
12623;SDS011;6377;42.836;23.998;2023-05-07T01:33:36;10.30;;;7.77;;
12623;SDS011;6377;42.836;23.998;2023-05-07T01:36:07;10.30;;;7.50;;
12623;SDS011;6377;42.836;23.998;2023-05-07T01:38:36;10.93;;;7.23;;
12623;SDS011;6377;42.836;23.998;2023-05-07T01:41:06;10.60;;;6.70;;
12623;SDS011;6377;42.836;23.998;2023-05-07T01:43:34;7.80;;;6.77;;
12623;SDS011;6377;42.836;23.998;2023-05-07T01:46:01;11.67;;;6.73;;
12623;SDS011;6377;42.836;23.998;2023-05-07T01:48:30;8.30;;;6.73;;
12623;SDS011;6377;42.836;23.998;2023-05-07T01:50:58;13.37;;;7.10;;
12623;SDS011;6377;42.836;23.998;2023-05-07T01:53:27;10.47;;;6.80;;
12623;SDS011;6377;42.836;23.998;2023-05-07T01:55:54;11.20;;;7.33;;
12623;SDS011;6377;42.836;23.998;2023-05-07T01:58:23;9.03;;;6.40;;
12623;SDS011;6377;42.836;23.998;2023-05-07T02:00:50;14.90;;;10.53;;
12623;SDS011;6377;42.836;23.998;2023-05-07T02:03:17;49.13;;;26.47;;
12623;SDS011;6377;42.836;23.998;2023-05-07T02:05:44;7.53;;;5.97;;
12623;SDS011;6377;42.836;23.998;2023-05-07T02:08:11;10.47;;;6.00;;
12623;SDS011;6377;42.836;23.998;2023-05-07T02:10:39;10.40;;;6.07;;
12623;SDS011;6377;42.836;23.998;2023-05-07T02:13:06;7.97;;;5.83;;
12623;SDS011;6377;42.836;23.998;2023-05-07T02:15:35;6.73;;;6.03;;
12623;SDS011;6377;42.836;23.998;2023-05-07T02:18:02;6.43;;;5.70;;
12623;SDS011;6377;42.836;23.998;2023-05-07T02:20:31;7.87;;;6.23;;
12623;SDS011;6377;42.836;23.998;2023-05-07T02:22:59;7.93;;;6.33;;
12623;SDS011;6377;42.836;23.998;2023-05-07T02:25:26;9.20;;;6.20;;
12623;SDS011;6377;42.836;23.998;2023-05-07T02:27:54;10.57;;;6.50;;
12623;SDS011;6377;42.836;23.998;2023-05-07T02:30:21;9.80;;;6.43;;
12623;SDS011;6377;42.836;23.998;2023-05-07T02:32:50;11.30;;;6.90;;
12623;SDS011;6377;42.836;23.998;2023-05-07T02:35:17;10.27;;;7.63;;
12623;SDS011;6377;42.836;23.998;2023-05-07T02:37:45;11.17;;;6.90;;
12623;SDS011;6377;42.836;23.998;2023-05-07T02:40:12;8.10;;;6.60;;
12623;SDS011;6377;42.836;23.998;2023-05-07T02:42:39;8.50;;;6.23;;
12623;SDS011;6377;42.836;23.998;2023-05-07T02:45:07;9.80;;;7.00;;
12623;SDS011;6377;42.836;23.998;2023-05-07T02:47:35;9.00;;;6.40;;
12623;SDS011;6377;42.836;23.998;2023-05-07T02:50:04;10.97;;;6.60;;
12623;SDS011;6377;42.836;23.998;2023-05-07T02:52:32;11.73;;;7.33;;
12623;SDS011;6377;42.836;23.998;2023-05-07T02:55:00;8.63;;;6.97;;
12623;SDS011;6377;42.836;23.998;2023-05-07T02:57:27;9.00;;;6.90;;
12623;SDS011;6377;42.836;23.998;2023-05-07T02:59:54;9.30;;;7.30;;
12623;SDS011;6377;42.836;23.998;2023-05-07T03:02:21;12.13;;;7.40;;
12623;SDS011;6377;42.836;23.998;2023-05-07T03:04:49;10.97;;;6.73;;
12623;SDS011;6377;42.836;23.998;2023-05-07T03:07:17;11.40;;;7.30;;
12623;SDS011;6377;42.836;23.998;2023-05-07T03:09:44;12.47;;;8.40;;
12623;SDS011;6377;42.836;23.998;2023-05-07T03:12:11;21.83;;;15.40;;
12623;SDS011;6377;42.836;23.998;2023-05-07T03:14:38;34.83;;;21.53;;
12623;SDS011;6377;42.836;23.998;2023-05-07T03:17:06;27.73;;;17.83;;
12623;SDS011;6377;42.836;23.998;2023-05-07T03:19:33;32.93;;;22.73;;
12623;SDS011;6377;42.836;23.998;2023-05-07T03:22:00;17.17;;;12.27;;
12623;SDS011;6377;42.836;23.998;2023-05-07T03:24:28;11.40;;;9.10;;
12623;SDS011;6377;42.836;23.998;2023-05-07T03:26:56;12.73;;;9.10;;
12623;SDS011;6377;42.836;23.998;2023-05-07T03:29:23;16.53;;;12.47;;
12623;SDS011;6377;42.836;23.998;2023-05-07T03:31:50;13.23;;;10.60;;
12623;SDS011;6377;42.836;23.998;2023-05-07T03:34:17;11.87;;;8.17;;
12623;SDS011;6377;42.836;23.998;2023-05-07T03:36:47;11.20;;;7.53;;
12623;SDS011;6377;42.836;23.998;2023-05-07T03:39:14;10.50;;;8.30;;
12623;SDS011;6377;42.836;23.998;2023-05-07T03:41:43;15.93;;;10.97;;
12623;SDS011;6377;42.836;23.998;2023-05-07T03:44:10;13.73;;;9.80;;
12623;SDS011;6377;42.836;23.998;2023-05-07T03:46:37;14.83;;;13.03;;
12623;SDS011;6377;42.836;23.998;2023-05-07T03:49:04;11.67;;;10.47;;
12623;SDS011;6377;42.836;23.998;2023-05-07T03:51:31;13.40;;;11.53;;
12623;SDS011;6377;42.836;23.998;2023-05-07T03:53:58;22.17;;;16.77;;
12623;SDS011;6377;42.836;23.998;2023-05-07T03:56:26;17.70;;;12.60;;
12623;SDS011;6377;42.836;23.998;2023-05-07T03:58:54;15.33;;;11.80;;
12623;SDS011;6377;42.836;23.998;2023-05-07T04:01:21;14.87;;;11.90;;
12623;SDS011;6377;42.836;23.998;2023-05-07T04:03:49;15.73;;;11.27;;
12623;SDS011;6377;42.836;23.998;2023-05-07T04:06:16;16.27;;;10.50;;
12623;SDS011;6377;42.836;23.998;2023-05-07T04:08:43;16.50;;;11.90;;
12623;SDS011;6377;42.836;23.998;2023-05-07T04:11:10;18.90;;;13.70;;
12623;SDS011;6377;42.836;23.998;2023-05-07T04:13:38;17.33;;;13.17;;
12623;SDS011;6377;42.836;23.998;2023-05-07T04:16:06;18.60;;;13.27;;
12623;SDS011;6377;42.836;23.998;2023-05-07T04:18:34;18.53;;;13.03;;
12623;SDS011;6377;42.836;23.998;2023-05-07T04:21:01;17.57;;;11.80;;
12623;SDS011;6377;42.836;23.998;2023-05-07T04:23:28;14.67;;;10.80;;
12623;SDS011;6377;42.836;23.998;2023-05-07T04:25:55;12.07;;;10.03;;
12623;SDS011;6377;42.836;23.998;2023-05-07T04:28:22;20.63;;;11.97;;
12623;SDS011;6377;42.836;23.998;2023-05-07T04:30:50;13.27;;;10.00;;
12623;SDS011;6377;42.836;23.998;2023-05-07T04:33:18;16.60;;;10.40;;
12623;SDS011;6377;42.836;23.998;2023-05-07T04:35:45;11.83;;;10.27;;
12623;SDS011;6377;42.836;23.998;2023-05-07T04:38:13;13.93;;;9.80;;
12623;SDS011;6377;42.836;23.998;2023-05-07T04:40:40;14.37;;;10.27;;
12623;SDS011;6377;42.836;23.998;2023-05-07T04:43:07;13.30;;;10.33;;
12623;SDS011;6377;42.836;23.998;2023-05-07T04:45:35;16.00;;;14.23;;
12623;SDS011;6377;42.836;23.998;2023-05-07T04:48:02;17.10;;;13.63;;
12623;SDS011;6377;42.836;23.998;2023-05-07T04:50:31;14.90;;;11.40;;
12623;SDS011;6377;42.836;23.998;2023-05-07T04:52:58;13.20;;;10.67;;
12623;SDS011;6377;42.836;23.998;2023-05-07T04:55:26;18.57;;;11.80;;
12623;SDS011;6377;42.836;23.998;2023-05-07T04:57:53;16.20;;;12.00;;
12623;SDS011;6377;42.836;23.998;2023-05-07T05:00:20;19.50;;;13.53;;
12623;SDS011;6377;42.836;23.998;2023-05-07T05:02:48;19.87;;;12.90;;
12623;SDS011;6377;42.836;23.998;2023-05-07T05:05:15;24.47;;;14.00;;
12623;SDS011;6377;42.836;23.998;2023-05-07T05:07:44;14.47;;;10.93;;
12623;SDS011;6377;42.836;23.998;2023-05-07T05:10:11;16.67;;;11.57;;
12623;SDS011;6377;42.836;23.998;2023-05-07T05:12:38;21.43;;;13.43;;
12623;SDS011;6377;42.836;23.998;2023-05-07T05:15:06;14.77;;;11.20;;
12623;SDS011;6377;42.836;23.998;2023-05-07T05:17:34;15.57;;;11.20;;
12623;SDS011;6377;42.836;23.998;2023-05-07T05:20:01;16.57;;;10.97;;
12623;SDS011;6377;42.836;23.998;2023-05-07T05:22:29;11.73;;;9.60;;
12623;SDS011;6377;42.836;23.998;2023-05-07T05:24:58;12.43;;;10.10;;
12623;SDS011;6377;42.836;23.998;2023-05-07T05:27:25;14.57;;;9.47;;
12623;SDS011;6377;42.836;23.998;2023-05-07T05:29:53;14.33;;;9.80;;
12623;SDS011;6377;42.836;23.998;2023-05-07T05:32:20;11.40;;;9.20;;
12623;SDS011;6377;42.836;23.998;2023-05-07T05:34:47;11.83;;;9.10;;
12623;SDS011;6377;42.836;23.998;2023-05-07T05:37:14;9.13;;;7.97;;
12623;SDS011;6377;42.836;23.998;2023-05-07T05:39:41;12.00;;;8.37;;
12623;SDS011;6377;42.836;23.998;2023-05-07T05:42:10;9.80;;;8.47;;
12623;SDS011;6377;42.836;23.998;2023-05-07T05:44:38;12.67;;;10.17;;
12623;SDS011;6377;42.836;23.998;2023-05-07T05:47:05;14.43;;;10.17;;
12623;SDS011;6377;42.836;23.998;2023-05-07T05:49:32;14.17;;;10.17;;
12623;SDS011;6377;42.836;23.998;2023-05-07T05:51:59;16.37;;;10.67;;
12623;SDS011;6377;42.836;23.998;2023-05-07T05:54:26;12.53;;;10.07;;
12623;SDS011;6377;42.836;23.998;2023-05-07T05:56:54;13.40;;;10.57;;
12623;SDS011;6377;42.836;23.998;2023-05-07T05:59:22;16.30;;;10.97;;
12623;SDS011;6377;42.836;23.998;2023-05-07T06:01:50;12.03;;;10.13;;
12623;SDS011;6377;42.836;23.998;2023-05-07T06:04:17;9.90;;;8.90;;
12623;SDS011;6377;42.836;23.998;2023-05-07T06:06:44;10.23;;;8.50;;
12623;SDS011;6377;42.836;23.998;2023-05-07T06:09:11;9.97;;;8.70;;
12623;SDS011;6377;42.836;23.998;2023-05-07T06:11:41;12.03;;;8.47;;
12623;SDS011;6377;42.836;23.998;2023-05-07T06:14:08;10.00;;;8.43;;
12623;SDS011;6377;42.836;23.998;2023-05-07T06:16:37;11.10;;;7.00;;
12623;SDS011;6377;42.836;23.998;2023-05-07T06:19:04;8.33;;;7.43;;
12623;SDS011;6377;42.836;23.998;2023-05-07T06:21:31;7.27;;;5.50;;
12623;SDS011;6377;42.836;23.998;2023-05-07T06:23:58;10.47;;;7.50;;
12623;SDS011;6377;42.836;23.998;2023-05-07T06:26:26;8.27;;;6.70;;
12623;SDS011;6377;42.836;23.998;2023-05-07T06:28:53;6.53;;;5.83;;
12623;SDS011;6377;42.836;23.998;2023-05-07T06:31:20;6.63;;;5.93;;
12623;SDS011;6377;42.836;23.998;2023-05-07T06:33:49;7.47;;;5.30;;
12623;SDS011;6377;42.836;23.998;2023-05-07T06:36:16;7.73;;;5.20;;
12623;SDS011;6377;42.836;23.998;2023-05-07T06:38:43;7.47;;;5.07;;
12623;SDS011;6377;42.836;23.998;2023-05-07T06:41:10;5.83;;;4.50;;
12623;SDS011;6377;42.836;23.998;2023-05-07T06:43:38;6.47;;;4.57;;
12623;SDS011;6377;42.836;23.998;2023-05-07T06:46:05;7.43;;;4.50;;
12623;SDS011;6377;42.836;23.998;2023-05-07T06:48:32;5.47;;;4.57;;
12623;SDS011;6377;42.836;23.998;2023-05-07T06:51:01;6.33;;;4.33;;
12623;SDS011;6377;42.836;23.998;2023-05-07T06:53:28;9.70;;;4.60;;
12623;SDS011;6377;42.836;23.998;2023-05-07T06:55:55;5.03;;;3.67;;
12623;SDS011;6377;42.836;23.998;2023-05-07T06:58:23;9.57;;;6.80;;
12623;SDS011;6377;42.836;23.998;2023-05-07T07:00:50;10.47;;;4.83;;
12623;SDS011;6377;42.836;23.998;2023-05-07T07:03:17;8.13;;;5.27;;
12623;SDS011;6377;42.836;23.998;2023-05-07T07:05:44;7.03;;;5.33;;
12623;SDS011;6377;42.836;23.998;2023-05-07T07:08:13;5.80;;;4.80;;
12623;SDS011;6377;42.836;23.998;2023-05-07T07:10:42;5.37;;;3.97;;
12623;SDS011;6377;42.836;23.998;2023-05-07T07:13:09;6.40;;;3.80;;
12623;SDS011;6377;42.836;23.998;2023-05-07T07:15:36;5.23;;;4.43;;
12623;SDS011;6377;42.836;23.998;2023-05-07T07:18:04;6.13;;;3.73;;
12623;SDS011;6377;42.836;23.998;2023-05-07T07:20:31;5.37;;;3.40;;
12623;SDS011;6377;42.836;23.998;2023-05-07T07:22:58;6.83;;;5.40;;
12623;SDS011;6377;42.836;23.998;2023-05-07T07:25:27;5.67;;;4.00;;
12623;SDS011;6377;42.836;23.998;2023-05-07T07:27:54;5.23;;;4.70;;
12623;SDS011;6377;42.836;23.998;2023-05-07T07:30:21;5.40;;;3.87;;
12623;SDS011;6377;42.836;23.998;2023-05-07T07:32:48;5.90;;;3.50;;
12623;SDS011;6377;42.836;23.998;2023-05-07T07:35:16;4.80;;;3.67;;
12623;SDS011;6377;42.836;23.998;2023-05-07T07:37:44;6.63;;;3.50;;
12623;SDS011;6377;42.836;23.998;2023-05-07T07:40:11;3.77;;;3.17;;
12623;SDS011;6377;42.836;23.998;2023-05-07T07:42:40;9.60;;;4.23;;
12623;SDS011;6377;42.836;23.998;2023-05-07T07:45:08;4.40;;;3.60;;
12623;SDS011;6377;42.836;23.998;2023-05-07T07:47:35;5.47;;;3.13;;
12623;SDS011;6377;42.836;23.998;2023-05-07T07:50:02;4.97;;;3.30;;
12623;SDS011;6377;42.836;23.998;2023-05-07T07:52:30;5.07;;;3.30;;
12623;SDS011;6377;42.836;23.998;2023-05-07T07:54:58;4.07;;;2.70;;
12623;SDS011;6377;42.836;23.998;2023-05-07T07:57:25;4.87;;;2.77;;
12623;SDS011;6377;42.836;23.998;2023-05-07T07:59:53;4.20;;;2.63;;
12623;SDS011;6377;42.836;23.998;2023-05-07T08:02:21;2.90;;;2.60;;
12623;SDS011;6377;42.836;23.998;2023-05-07T08:04:48;4.43;;;2.40;;
12623;SDS011;6377;42.836;23.998;2023-05-07T08:07:15;4.70;;;2.93;;
12623;SDS011;6377;42.836;23.998;2023-05-07T08:09:43;3.63;;;3.00;;
12623;SDS011;6377;42.836;23.998;2023-05-07T08:12:11;4.47;;;3.42;;
12623;SDS011;6377;42.836;23.998;2023-05-07T08:14:38;5.22;;;3.65;;
12623;SDS011;6377;42.836;23.998;2023-05-07T08:17:07;3.92;;;3.17;;
12623;SDS011;6377;42.836;23.998;2023-05-07T08:19:35;7.03;;;5.13;;
12623;SDS011;6377;42.836;23.998;2023-05-07T08:22:02;7.43;;;4.47;;
12623;SDS011;6377;42.836;23.998;2023-05-07T08:24:30;4.95;;;3.70;;
12623;SDS011;6377;42.836;23.998;2023-05-07T08:26:58;7.38;;;3.80;;
12623;SDS011;6377;42.836;23.998;2023-05-07T08:29:25;7.80;;;5.45;;
12623;SDS011;6377;42.836;23.998;2023-05-07T08:31:52;3.75;;;2.67;;
12623;SDS011;6377;42.836;23.998;2023-05-07T08:34:21;4.38;;;2.90;;
12623;SDS011;6377;42.836;23.998;2023-05-07T08:36:48;3.40;;;3.10;;
12623;SDS011;6377;42.836;23.998;2023-05-07T08:39:16;4.35;;;3.25;;
12623;SDS011;6377;42.836;23.998;2023-05-07T08:41:44;4.28;;;3.10;;
12623;SDS011;6377;42.836;23.998;2023-05-07T08:44:12;3.33;;;2.60;;
12623;SDS011;6377;42.836;23.998;2023-05-07T08:46:41;4.30;;;2.90;;
12623;SDS011;6377;42.836;23.998;2023-05-07T08:49:08;4.57;;;3.20;;
12623;SDS011;6377;42.836;23.998;2023-05-07T08:51:38;7.53;;;5.18;;
12623;SDS011;6377;42.836;23.998;2023-05-07T08:54:05;5.70;;;4.45;;
12623;SDS011;6377;42.836;23.998;2023-05-07T08:56:33;5.20;;;4.22;;
12623;SDS011;6377;42.836;23.998;2023-05-07T08:59:00;4.00;;;3.17;;
12623;SDS011;6377;42.836;23.998;2023-05-07T09:01:29;3.83;;;3.03;;
12623;SDS011;6377;42.836;23.998;2023-05-07T09:03:56;6.20;;;2.90;;
12623;SDS011;6377;42.836;23.998;2023-05-07T09:06:24;3.40;;;2.90;;
12623;SDS011;6377;42.836;23.998;2023-05-07T09:08:53;2.90;;;2.65;;
12623;SDS011;6377;42.836;23.998;2023-05-07T09:11:21;4.85;;;3.00;;
12623;SDS011;6377;42.836;23.998;2023-05-07T09:13:49;6.10;;;3.10;;
12623;SDS011;6377;42.836;23.998;2023-05-07T09:16:20;4.72;;;2.63;;
12623;SDS011;6377;42.836;23.998;2023-05-07T09:18:50;4.82;;;3.00;;
12623;SDS011;6377;42.836;23.998;2023-05-07T09:21:18;3.95;;;3.45;;
12623;SDS011;6377;42.836;23.998;2023-05-07T09:23:48;3.40;;;2.55;;
12623;SDS011;6377;42.836;23.998;2023-05-07T09:26:18;5.20;;;2.90;;
12623;SDS011;6377;42.836;23.998;2023-05-07T09:28:47;4.00;;;2.97;;
12623;SDS011;6377;42.836;23.998;2023-05-07T09:31:14;6.93;;;2.90;;
12623;SDS011;6377;42.836;23.998;2023-05-07T09:33:41;8.13;;;4.22;;
12623;SDS011;6377;42.836;23.998;2023-05-07T09:36:09;5.28;;;3.88;;
12623;SDS011;6377;42.836;23.998;2023-05-07T09:38:37;4.32;;;2.83;;
12623;SDS011;6377;42.836;23.998;2023-05-07T09:41:05;5.20;;;3.10;;
12623;SDS011;6377;42.836;23.998;2023-05-07T09:43:35;4.18;;;3.20;;
12623;SDS011;6377;42.836;23.998;2023-05-07T09:46:03;3.10;;;2.80;;
12623;SDS011;6377;42.836;23.998;2023-05-07T09:48:33;3.85;;;2.70;;
12623;SDS011;6377;42.836;23.998;2023-05-07T09:51:05;3.20;;;2.90;;
12623;SDS011;6377;42.836;23.998;2023-05-07T09:53:38;4.20;;;2.75;;
12623;SDS011;6377;42.836;23.998;2023-05-07T09:56:07;3.03;;;2.70;;
12623;SDS011;6377;42.836;23.998;2023-05-07T09:58:37;4.97;;;3.08;;
12623;SDS011;6377;42.836;23.998;2023-05-07T10:01:07;3.45;;;2.70;;
12623;SDS011;6377;42.836;23.998;2023-05-07T10:03:36;2.92;;;2.33;;
12623;SDS011;6377;42.836;23.998;2023-05-07T10:06:06;4.57;;;2.50;;
12623;SDS011;6377;42.836;23.998;2023-05-07T10:08:34;2.80;;;2.33;;
12623;SDS011;6377;42.836;23.998;2023-05-07T10:11:03;2.42;;;2.20;;
12623;SDS011;6377;42.836;23.998;2023-05-07T10:13:30;5.05;;;2.47;;
12623;SDS011;6377;42.836;23.998;2023-05-07T10:16:00;3.05;;;2.30;;
12623;SDS011;6377;42.836;23.998;2023-05-07T10:18:28;3.65;;;2.42;;
12623;SDS011;6377;42.836;23.998;2023-05-07T10:20:59;4.40;;;2.58;;
12623;SDS011;6377;42.836;23.998;2023-05-07T10:23:33;3.40;;;2.50;;
12623;SDS011;6377;42.836;23.998;2023-05-07T10:26:02;2.47;;;2.25;;
12623;SDS011;6377;42.836;23.998;2023-05-07T10:28:33;2.85;;;2.47;;
12623;SDS011;6377;42.836;23.998;2023-05-07T10:31:10;2.60;;;2.40;;
12623;SDS011;6377;42.836;23.998;2023-05-07T10:33:50;4.72;;;2.58;;
12623;SDS011;6377;42.836;23.998;2023-05-07T10:36:19;2.38;;;2.13;;
12623;SDS011;6377;42.836;23.998;2023-05-07T10:38:48;2.50;;;2.30;;
12623;SDS011;6377;42.836;23.998;2023-05-07T10:41:15;2.10;;;2.00;;
12623;SDS011;6377;42.836;23.998;2023-05-07T10:43:44;5.15;;;2.65;;
12623;SDS011;6377;42.836;23.998;2023-05-07T10:46:15;2.40;;;2.20;;
12623;SDS011;6377;42.836;23.998;2023-05-07T10:51:36;3.28;;;2.08;;
12623;SDS011;6377;42.836;23.998;2023-05-07T10:54:20;3.83;;;2.50;;
12623;SDS011;6377;42.836;23.998;2023-05-07T10:56:50;2.60;;;2.10;;
12623;SDS011;6377;42.836;23.998;2023-05-07T10:59:31;2.53;;;2.33;;
12623;SDS011;6377;42.836;23.998;2023-05-07T11:02:08;3.42;;;2.30;;
12623;SDS011;6377;42.836;23.998;2023-05-07T11:04:39;3.38;;;2.30;;
12623;SDS011;6377;42.836;23.998;2023-05-07T11:10:02;5.22;;;2.55;;
12623;SDS011;6377;42.836;23.998;2023-05-07T11:12:47;2.35;;;2.10;;
12623;SDS011;6377;42.836;23.998;2023-05-07T11:15:15;3.05;;;2.28;;
12623;SDS011;6377;42.836;23.998;2023-05-07T11:18:03;3.50;;;2.45;;
12623;SDS011;6377;42.836;23.998;2023-05-07T11:26:27;3.55;;;2.40;;
12623;SDS011;6377;42.836;23.998;2023-05-07T11:28:56;2.80;;;2.40;;
12623;SDS011;6377;42.836;23.998;2023-05-07T11:31:26;2.80;;;2.30;;
12623;SDS011;6377;42.836;23.998;2023-05-07T11:33:56;2.67;;;2.47;;
12623;SDS011;6377;42.836;23.998;2023-05-07T11:36:24;3.50;;;2.58;;
12623;SDS011;6377;42.836;23.998;2023-05-07T11:38:52;3.60;;;2.47;;
12623;SDS011;6377;42.836;23.998;2023-05-07T11:41:19;3.30;;;2.47;;
12623;SDS011;6377;42.836;23.998;2023-05-07T11:43:57;4.03;;;2.67;;
12623;SDS011;6377;42.836;23.998;2023-05-07T11:46:26;2.70;;;2.45;;
12623;SDS011;6377;42.836;23.998;2023-05-07T11:48:54;5.70;;;2.80;;
12623;SDS011;6377;42.836;23.998;2023-05-07T11:51:23;3.40;;;2.28;;
12623;SDS011;6377;42.836;23.998;2023-05-07T11:53:52;3.30;;;2.47;;
12623;SDS011;6377;42.836;23.998;2023-05-07T11:56:20;3.08;;;2.78;;
12623;SDS011;6377;42.836;23.998;2023-05-07T11:58:47;3.15;;;2.60;;
12623;SDS011;6377;42.836;23.998;2023-05-07T12:01:17;2.75;;;2.42;;
12623;SDS011;6377;42.836;23.998;2023-05-07T12:03:44;4.28;;;2.33;;
12623;SDS011;6377;42.836;23.998;2023-05-07T12:06:14;3.38;;;2.47;;
12623;SDS011;6377;42.836;23.998;2023-05-07T12:08:43;2.50;;;2.30;;
12623;SDS011;6377;42.836;23.998;2023-05-07T12:11:12;4.35;;;2.60;;
12623;SDS011;6377;42.836;23.998;2023-05-07T12:13:42;2.45;;;2.22;;
12623;SDS011;6377;42.836;23.998;2023-05-07T12:16:10;3.00;;;2.70;;
12623;SDS011;6377;42.836;23.998;2023-05-07T12:18:38;4.93;;;2.45;;
12623;SDS011;6377;42.836;23.998;2023-05-07T12:21:05;5.93;;;2.80;;
12623;SDS011;6377;42.836;23.998;2023-05-07T12:23:35;3.92;;;3.00;;
12623;SDS011;6377;42.836;23.998;2023-05-07T12:26:03;9.35;;;5.18;;
12623;SDS011;6377;42.836;23.998;2023-05-07T12:28:31;9.07;;;5.07;;
12623;SDS011;6377;42.836;23.998;2023-05-07T12:31:04;2.97;;;2.30;;
12623;SDS011;6377;42.836;23.998;2023-05-07T12:33:32;2.67;;;2.20;;
12623;SDS011;6377;42.836;23.998;2023-05-07T12:36:02;2.70;;;2.50;;
12623;SDS011;6377;42.836;23.998;2023-05-07T12:38:36;2.45;;;2.25;;
12623;SDS011;6377;42.836;23.998;2023-05-07T12:41:06;4.20;;;2.95;;
12623;SDS011;6377;42.836;23.998;2023-05-07T12:43:34;3.10;;;2.80;;
12623;SDS011;6377;42.836;23.998;2023-05-07T12:46:01;4.78;;;2.50;;
12623;SDS011;6377;42.836;23.998;2023-05-07T12:48:31;2.97;;;2.67;;
12623;SDS011;6377;42.836;23.998;2023-05-07T12:50:59;3.92;;;2.63;;
12623;SDS011;6377;42.836;23.998;2023-05-07T12:53:28;6.00;;;2.70;;
12623;SDS011;6377;42.836;23.998;2023-05-07T12:55:58;2.90;;;2.63;;
12623;SDS011;6377;42.836;23.998;2023-05-07T12:58:27;3.30;;;2.50;;
12623;SDS011;6377;42.836;23.998;2023-05-07T13:00:55;2.88;;;2.63;;
12623;SDS011;6377;42.836;23.998;2023-05-07T13:03:24;3.70;;;2.55;;
12623;SDS011;6377;42.836;23.998;2023-05-07T13:05:52;2.67;;;2.47;;
12623;SDS011;6377;42.836;23.998;2023-05-07T13:08:24;2.85;;;2.42;;
12623;SDS011;6377;42.836;23.998;2023-05-07T13:10:52;3.20;;;2.45;;
12623;SDS011;6377;42.836;23.998;2023-05-07T13:13:21;4.65;;;2.60;;
12623;SDS011;6377;42.836;23.998;2023-05-07T13:15:48;3.05;;;2.40;;
12623;SDS011;6377;42.836;23.998;2023-05-07T13:18:15;4.35;;;2.60;;
12623;SDS011;6377;42.836;23.998;2023-05-07T13:20:42;3.00;;;2.70;;
12623;SDS011;6377;42.836;23.998;2023-05-07T13:23:10;4.03;;;2.80;;
12623;SDS011;6377;42.836;23.998;2023-05-07T13:25:37;2.85;;;2.55;;
12623;SDS011;6377;42.836;23.998;2023-05-07T13:28:05;4.03;;;2.80;;
12623;SDS011;6377;42.836;23.998;2023-05-07T13:30:33;2.85;;;2.50;;
12623;SDS011;6377;42.836;23.998;2023-05-07T13:33:01;5.95;;;2.30;;
12623;SDS011;6377;42.836;23.998;2023-05-07T13:35:28;4.20;;;2.78;;
12623;SDS011;6377;42.836;23.998;2023-05-07T13:37:55;4.80;;;2.40;;
12623;SDS011;6377;42.836;23.998;2023-05-07T13:40:22;4.82;;;2.55;;
12623;SDS011;6377;42.836;23.998;2023-05-07T13:42:50;2.72;;;2.50;;
12623;SDS011;6377;42.836;23.998;2023-05-07T13:45:17;3.72;;;2.90;;
12623;SDS011;6377;42.836;23.998;2023-05-07T13:47:46;3.25;;;2.63;;
12623;SDS011;6377;42.836;23.998;2023-05-07T13:50:14;3.17;;;2.45;;
12623;SDS011;6377;42.836;23.998;2023-05-07T13:52:42;3.22;;;2.63;;
12623;SDS011;6377;42.836;23.998;2023-05-07T13:55:15;6.03;;;2.75;;
12623;SDS011;6377;42.836;23.998;2023-05-07T13:57:43;3.47;;;2.58;;
12623;SDS011;6377;42.836;23.998;2023-05-07T14:00:11;4.50;;;2.40;;
12623;SDS011;6377;42.836;23.998;2023-05-07T14:02:38;3.80;;;2.90;;
12623;SDS011;6377;42.836;23.998;2023-05-07T14:05:07;4.50;;;3.13;;
12623;SDS011;6377;42.836;23.998;2023-05-07T14:07:35;3.05;;;2.72;;
12623;SDS011;6377;42.836;23.998;2023-05-07T14:10:02;4.30;;;2.92;;
12623;SDS011;6377;42.836;23.998;2023-05-07T14:12:31;5.10;;;3.00;;
12623;SDS011;6377;42.836;23.998;2023-05-07T14:15:01;3.97;;;2.33;;
12623;SDS011;6377;42.836;23.998;2023-05-07T14:17:29;3.30;;;2.80;;
12623;SDS011;6377;42.836;23.998;2023-05-07T14:19:56;6.38;;;3.30;;
12623;SDS011;6377;42.836;23.998;2023-05-07T14:22:25;4.30;;;3.00;;
12623;SDS011;6377;42.836;23.998;2023-05-07T14:24:53;3.25;;;2.50;;
12623;SDS011;6377;42.836;23.998;2023-05-07T14:27:20;3.40;;;2.83;;
12623;SDS011;6377;42.836;23.998;2023-05-07T14:29:47;3.78;;;2.70;;
12623;SDS011;6377;42.836;23.998;2023-05-07T14:32:16;3.15;;;2.83;;
12623;SDS011;6377;42.836;23.998;2023-05-07T14:34:44;5.70;;;2.78;;
12623;SDS011;6377;42.836;23.998;2023-05-07T14:37:12;3.53;;;2.50;;
12623;SDS011;6377;42.836;23.998;2023-05-07T14:39:41;4.70;;;3.58;;
12623;SDS011;6377;42.836;23.998;2023-05-07T14:42:08;3.63;;;3.30;;
12623;SDS011;6377;42.836;23.998;2023-05-07T14:44:36;3.75;;;3.05;;
12623;SDS011;6377;42.836;23.998;2023-05-07T14:47:05;4.07;;;3.33;;
12623;SDS011;6377;42.836;23.998;2023-05-07T14:49:33;6.38;;;3.20;;
12623;SDS011;6377;42.836;23.998;2023-05-07T14:52:00;3.22;;;2.92;;
12623;SDS011;6377;42.836;23.998;2023-05-07T14:54:27;6.00;;;3.20;;
12623;SDS011;6377;42.836;23.998;2023-05-07T14:56:56;5.72;;;3.58;;
12623;SDS011;6377;42.836;23.998;2023-05-07T14:59:24;5.57;;;3.42;;